Ikarus — SWEW — position and weather

sailwx.info

Track history (hours):
 
Tides and Currents Weather Stations Pressure Air Temp Water Temp Dewpoint Dewpoint Depression Visibility Wind Speed Wind Dir Waves Ship Positions

Ikarus

Last reported at 2014-Jul-31 13:33 UTC. Time now 2014-Jul-31 13:41 UTC.
Position N 42°54' E 008°19'.

Length 200 m; draft 6.7 m.

Type: Ship. MMSI: 239513000.

Date/timePositionNaut miles runAvg speedWind from/ knotsBaromVisibWave heightAir tempDewpointWater temp
2014-Jul-31 13:33N 42°54' E 008°19'2019.9
2014-Jul-31 12:33N 42°48' E 007°53'2020.0
2014-Jul-31 11:33N 42°41' E 007°28'2019.8
2014-Jul-31 10:33N 42°34' E 007°02'2019.5
2014-Jul-31 09:32N 42°28' E 006°37'1918.9
2014-Jul-31 08:33N 42°22' E 006°13'1919.4
2014-Jul-31 07:33N 42°15' E 005°48'1919.0
2014-Jul-31 06:32N 42°09' E 005°24'1919.2
2014-Jul-31 05:33N 42°03' E 004°60'2619.2
2014-Jul-31 04:11N 41°55' E 004°26'2120.1
2014-Jul-31 03:08N 41°48' E 003°59'3319.3
2014-Jul-31 01:27N 41°36' E 003°18'1718.4
2014-Jul-31 00:33N 41°30' E 002°58'2020.0
2014-Jul-30 23:32N 41°22' E 002°33'1817.9
2014-Jul-30 22:33N 41°18' E 002°10'4 4.2
2014-Jul-30 21:33N 41°22' E 002°11'0 0.0
2014-Jul-30 20:33N 41°22' E 002°11'0 0.0
2014-Jul-30 19:33N 41°22' E 002°11'1 1.3
2014-Jul-30 18:33N 41°21' E 002°10'1110.8
2014-Jul-30 17:33N 41°10' E 002°07'2120.7
2014-Jul-30 16:33N 40°52' E 001°55'2221.5
2014-Jul-30 15:33N 40°33' E 001°41'2019.7
2014-Jul-30 14:33N 40°15' E 001°30'2121.1
2014-Jul-30 13:33N 39°56' E 001°17'13021.6
2014-Jul-30 07:30N 38°03' W 000°06'2021.3
2014-Jul-30 06:33N 37°46' W 000°21'2221.0
2014-Jul-30 05:31N 37°29' W 000°38'2120.7
2014-Jul-30 04:30N 37°15' W 000°57'22920.9
2014-Jul-29 17:34N 35°57' W 005°26'3 0.3
2014-Jul-29 10:03N 35°58' W 005°29'916.1
2014-Jul-29 09:30N 36°01' W 005°18'18714.4
2014-Jul-28 20:31N 36°52' W 001°35'4814.6
2014-Jul-28 17:16N 37°23' W 000°51'1415.1
2014-Jul-28 16:22N 37°32' W 000°38'1215.1
2014-Jul-28 15:34N 37°42' W 000°28'1514.7
2014-Jul-28 14:33N 37°54' W 000°18'3215.0
2014-Jul-28 12:25N 38°21' E 000°04'1315.1
2014-Jul-28 11:32N 38°32' E 000°14'1814.9
2014-Jul-28 10:21N 38°47' E 000°26'1715.2
2014-Jul-28 09:13N 39°02' E 000°37'1515.7
2014-Jul-28 08:14N 39°16' E 000°46'3015.4
2014-Jul-28 06:18N 39°42' E 001°04'1115.1
2014-Jul-28 05:33N 39°52' E 001°11'1515.1
2014-Jul-28 04:34N 40°05' E 001°20'1515.1
2014-Jul-28 03:33N 40°19' E 001°30'1515.1
2014-Jul-28 02:33N 40°32' E 001°39'1514.9
2014-Jul-28 01:33N 40°45' E 001°48'1514.8
2014-Jul-28 00:33N 40°58' E 001°57'1514.6
2014-Jul-27 23:33N 41°11' E 002°07'1110.9
2014-Jul-27 22:33N 41°21' E 002°11'0 0.2
2014-Jul-27 21:30N 41°22' E 002°11'0 0.0
2014-Jul-27 20:30N 41°22' E 002°11'0 0.0
2014-Jul-27 19:30N 41°22' E 002°11'1 1.2
2014-Jul-27 18:33N 41°21' E 002°10'8 7.7
2014-Jul-27 17:33N 41°20' E 002°20'6418.9
2014-Jul-27 14:12N 41°48' E 003°37'5319.2
2014-Jul-27 11:25N 42°11' E 004°42'2619.2
2014-Jul-27 10:04N 42°21' E 005°13'1118.8
2014-Jul-27 09:29N 42°25' E 005°27'1718.7
2014-Jul-27 08:33N 42°33' E 005°48'1918.7
2014-Jul-27 07:33N 42°41' E 006°11'1919.4
2014-Jul-27 06:34N 42°49' E 006°35'2020.2
2014-Jul-27 05:33N 42°55' E 007°02'2420.3
2014-Jul-27 04:22N 43°01' E 007°33'4420.0
2014-Jul-27 02:11N 43°14' E 008°31'1219.9
2014-Jul-27 01:33N 43°17' E 008°47'2019.9
2014-Jul-27 00:34N 43°22' E 009°14'2019.6
2014-Jul-26 23:34N 43°27' E 009°40'1919.2
2014-Jul-26 22:34N 43°30' E 010°06'1010.1
2014-Jul-26 21:33N 43°35' E 010°18'0 0.1
2014-Jul-26 20:33N 43°35' E 010°18'0 0.0
2014-Jul-26 19:33N 43°35' E 010°18'0 0.0
2014-Jul-26 18:34N 43°35' E 010°18'0 0.0
2014-Jul-26 17:34N 43°35' E 010°18'0 0.0
2014-Jul-26 16:33N 43°35' E 010°18'0 0.0
2014-Jul-26 15:34N 43°35' E 010°18'0 0.0
2014-Jul-26 14:34N 43°35' E 010°18'0 0.0
2014-Jul-26 13:34N 43°35' E 010°18'0 0.0
2014-Jul-26 12:34N 43°35' E 010°18'0 0.0
2014-Jul-26 11:33N 43°35' E 010°18'0 0.0
2014-Jul-26 10:34N 43°35' E 010°18'0 0.0
2014-Jul-26 09:34N 43°35' E 010°18'0 0.0
2014-Jul-26 08:34N 43°35' E 010°18'0 0.0
2014-Jul-26 07:34N 43°35' E 010°18'0 0.0
2014-Jul-26 06:33N 43°35' E 010°18'0 0.0
2014-Jul-26 05:33N 43°35' E 010°18'0 0.0
2014-Jul-26 04:33N 43°35' E 010°18'0 0.0
2014-Jul-26 03:34N 43°35' E 010°18'0 0.0
2014-Jul-26 02:33N 43°35' E 010°18'0 0.0
2014-Jul-26 01:33N 43°35' E 010°18'0 0.0
2014-Jul-26 00:34N 43°35' E 010°18'0 0.0
2014-Jul-25 23:33N 43°35' E 010°18'0 0.0
2014-Jul-25 22:33N 43°35' E 010°18'0 0.0
2014-Jul-25 21:34N 43°35' E 010°18'0 0.0
2014-Jul-25 20:33N 43°35' E 010°18'0 0.0
2014-Jul-25 19:33N 43°35' E 010°18'0 0.0
2014-Jul-25 18:33N 43°35' E 010°18'0 0.0
2014-Jul-25 17:34N 43°35' E 010°18'0 0.0
2014-Jul-25 16:34N 43°35' E 010°18'0 0.0
2014-Jul-25 15:34N 43°35' E 010°18'0 0.0
2014-Jul-25 14:34N 43°35' E 010°18'0 0.0
2014-Jul-25 13:34N 43°35' E 010°18'0 0.0
2014-Jul-25 12:34N 43°35' E 010°18'0 0.0
2014-Jul-25 11:34N 43°35' E 010°18'0 0.0
2014-Jul-25 10:34N 43°35' E 010°18'0 0.0
2014-Jul-25 09:34N 43°35' E 010°18'0 0.0
2014-Jul-25 08:33N 43°35' E 010°18'0 0.0
2014-Jul-25 07:34N 43°35' E 010°18'0 0.0
2014-Jul-25 06:34N 43°35' E 010°18'0 0.0
2014-Jul-25 05:34N 43°35' E 010°18'0 0.0
2014-Jul-25 04:33N 43°35' E 010°18'0 0.0
2014-Jul-25 03:33N 43°35' E 010°18'0 0.0
2014-Jul-25 02:33N 43°35' E 010°18'0 0.0
2014-Jul-25 01:33N 43°35' E 010°18'0 0.0
2014-Jul-25 00:33N 43°35' E 010°18'0 0.0
2014-Jul-24 23:33N 43°35' E 010°18'0 0.0
2014-Jul-24 22:33N 43°35' E 010°18'0 0.0
2014-Jul-24 21:33N 43°35' E 010°18'0 0.0
2014-Jul-24 20:33N 43°35' E 010°18'0 0.0
2014-Jul-24 19:33N 43°35' E 010°18'4 4.5
2014-Jul-24 18:33N 43°31' E 010°15'1717.0
2014-Jul-24 17:33N 43°20' E 009°57'1919.2
2014-Jul-24 16:33N 43°14' E 009°32'10319.1
2014-Jul-24 11:10N 42°39' E 007°20'1219.3
2014-Jul-24 10:33N 42°35' E 007°04'2019.3
2014-Jul-24 09:32N 42°28' E 006°39'1919.6
2014-Jul-24 08:33N 42°22' E 006°15'2020.4
2014-Jul-24 07:33N 42°15' E 005°49'2120.6
2014-Jul-24 06:32N 42°08' E 005°22'2120.3
2014-Jul-24 05:31N 42°01' E 004°56'1919.6
2014-Jul-24 04:33N 41°54' E 004°32'2020.4
2014-Jul-24 03:33N 41°48' E 004°06'2020.0
2014-Jul-24 02:33N 41°41' E 003°41'2121.2
2014-Jul-24 01:33N 41°34' E 003°15'2019.5
2014-Jul-24 00:33N 41°27' E 002°50'1918.9
2014-Jul-23 23:33N 41°20' E 002°26'1212.1
2014-Jul-23 22:33N 41°20' E 002°10'2 1.8
2014-Jul-23 21:33N 41°22' E 002°11'0 0.0
2014-Jul-23 20:33N 41°22' E 002°11'0 0.0
2014-Jul-23 19:33N 41°22' E 002°11'0 0.2
2014-Jul-23 18:33N 41°22' E 002°11'1515.1
2014-Jul-23 17:33N 41°07' E 002°05'2121.4
2014-Jul-23 16:34N 40°48' E 001°52'2121.0
2014-Jul-23 15:33N 40°30' E 001°39'2121.1
2014-Jul-23 14:33N 40°11' E 001°27'2120.9
2014-Jul-23 13:34N 39°52' E 001°15'6521.4
2014-Jul-23 10:31N 38°54' E 000°37'2220.3
2014-Jul-23 09:27N 38°36' E 000°22'1921.4
2014-Jul-23 08:33N 38°20' E 000°09'2221.6
2014-Jul-23 07:33N 38°02' W 000°06'2121.4
2014-Jul-23 06:33N 37°44' W 000°22'2221.1
2014-Jul-23 05:31N 37°28' W 000°40'2021.1
2014-Jul-23 04:33N 37°14' W 000°59'2121.1
2014-Jul-23 03:33N 36°60' W 001°18'2420.9
2014-Jul-23 02:24N 36°43' W 001°41'1821.5
2014-Jul-23 01:33N 36°30' W 001°57'2320.4
2014-Jul-23 00:25N 36°20' W 002°22'15021.8
2014-Jul-22 17:33N 35°57' W 005°25'3 0.3
2014-Jul-22 09:32N 35°60' W 005°24'15014.4
2014-Jul-21 23:08N 36°25' W 002°22'814.8
2014-Jul-21 22:34N 36°27' W 002°11'1515.1
2014-Jul-21 21:34N 36°36' W 001°57'1715.4
2014-Jul-21 20:29N 36°47' W 001°41'315.5
2014-Jul-21 20:18N 36°49' W 001°38'1215.4
2014-Jul-21 19:33N 36°57' W 001°28'4615.1
2014-Jul-21 16:30N 37°27' W 000°44'1414.9
2014-Jul-21 15:33N 37°37' W 000°32'1514.7
2014-Jul-21 14:31N 37°50' W 000°21'  
Track history (hours):
 
Tides and Currents Weather Stations Pressure Air Temp Water Temp Dewpoint Dewpoint Depression Visibility Wind Speed Wind Dir Waves Ship Positions

Ikarus

Last reported at 2014-Jul-31 13:33 UTC. Time now 2014-Jul-31 13:41 UTC.
Position N 42°54' E 008°19'.

Length 200 m; draft 6.7 m.

Type: Ship. MMSI: 239513000.

Date/timePositionNaut miles runAvg speedWind from/ knotsBaromVisibWave heightAir tempDewpointWater temp
2014-Jul-31 13:33N 42°54' E 008°19'2019.9
2014-Jul-31 12:33N 42°48' E 007°53'2020.0
2014-Jul-31 11:33N 42°41' E 007°28'2019.8
2014-Jul-31 10:33N 42°34' E 007°02'2019.5
2014-Jul-31 09:32N 42°28' E 006°37'1918.9
2014-Jul-31 08:33N 42°22' E 006°13'1919.4
2014-Jul-31 07:33N 42°15' E 005°48'1919.0
2014-Jul-31 06:32N 42°09' E 005°24'1919.2
2014-Jul-31 05:33N 42°03' E 004°60'2619.2
2014-Jul-31 04:11N 41°55' E 004°26'2120.1
2014-Jul-31 03:08N 41°48' E 003°59'3319.3
2014-Jul-31 01:27N 41°36' E 003°18'1718.4
2014-Jul-31 00:33N 41°30' E 002°58'2020.0
2014-Jul-30 23:32N 41°22' E 002°33'1817.9
2014-Jul-30 22:33N 41°18' E 002°10'4 4.2
2014-Jul-30 21:33N 41°22' E 002°11'0 0.0
2014-Jul-30 20:33N 41°22' E 002°11'0 0.0
2014-Jul-30 19:33N 41°22' E 002°11'1 1.3
2014-Jul-30 18:33N 41°21' E 002°10'1110.8
2014-Jul-30 17:33N 41°10' E 002°07'2120.7
2014-Jul-30 16:33N 40°52' E 001°55'2221.5
2014-Jul-30 15:33N 40°33' E 001°41'2019.7
2014-Jul-30 14:33N 40°15' E 001°30'2121.1
2014-Jul-30 13:33N 39°56' E 001°17'13021.6
2014-Jul-30 07:30N 38°03' W 000°06'2021.3
2014-Jul-30 06:33N 37°46' W 000°21'2221.0
2014-Jul-30 05:31N 37°29' W 000°38'2120.7
2014-Jul-30 04:30N 37°15' W 000°57'22920.9
2014-Jul-29 17:34N 35°57' W 005°26'3 0.3
2014-Jul-29 10:03N 35°58' W 005°29'916.1
2014-Jul-29 09:30N 36°01' W 005°18'18714.4
2014-Jul-28 20:31N 36°52' W 001°35'4814.6
2014-Jul-28 17:16N 37°23' W 000°51'1415.1
2014-Jul-28 16:22N 37°32' W 000°38'1215.1
2014-Jul-28 15:34N 37°42' W 000°28'1514.7
2014-Jul-28 14:33N 37°54' W 000°18'3215.0
2014-Jul-28 12:25N 38°21' E 000°04'1315.1
2014-Jul-28 11:32N 38°32' E 000°14'1814.9
2014-Jul-28 10:21N 38°47' E 000°26'1715.2
2014-Jul-28 09:13N 39°02' E 000°37'1515.7
2014-Jul-28 08:14N 39°16' E 000°46'3015.4
2014-Jul-28 06:18N 39°42' E 001°04'1115.1
2014-Jul-28 05:33N 39°52' E 001°11'1515.1
2014-Jul-28 04:34N 40°05' E 001°20'1515.1
2014-Jul-28 03:33N 40°19' E 001°30'1515.1
2014-Jul-28 02:33N 40°32' E 001°39'1514.9
2014-Jul-28 01:33N 40°45' E 001°48'1514.8
2014-Jul-28 00:33N 40°58' E 001°57'1514.6
2014-Jul-27 23:33N 41°11' E 002°07'1110.9
2014-Jul-27 22:33N 41°21' E 002°11'0 0.2
2014-Jul-27 21:30N 41°22' E 002°11'0 0.0
2014-Jul-27 20:30N 41°22' E 002°11'0 0.0
2014-Jul-27 19:30N 41°22' E 002°11'1 1.2
2014-Jul-27 18:33N 41°21' E 002°10'8 7.7
2014-Jul-27 17:33N 41°20' E 002°20'6418.9
2014-Jul-27 14:12N 41°48' E 003°37'5319.2
2014-Jul-27 11:25N 42°11' E 004°42'2619.2
2014-Jul-27 10:04N 42°21' E 005°13'1118.8
2014-Jul-27 09:29N 42°25' E 005°27'1718.7
2014-Jul-27 08:33N 42°33' E 005°48'1918.7
2014-Jul-27 07:33N 42°41' E 006°11'1919.4
2014-Jul-27 06:34N 42°49' E 006°35'2020.2
2014-Jul-27 05:33N 42°55' E 007°02'2420.3
2014-Jul-27 04:22N 43°01' E 007°33'4420.0
2014-Jul-27 02:11N 43°14' E 008°31'1219.9
2014-Jul-27 01:33N 43°17' E 008°47'2019.9
2014-Jul-27 00:34N 43°22' E 009°14'2019.6
2014-Jul-26 23:34N 43°27' E 009°40'1919.2
2014-Jul-26 22:34N 43°30' E 010°06'1010.1
2014-Jul-26 21:33N 43°35' E 010°18'0 0.1
2014-Jul-26 20:33N 43°35' E 010°18'0 0.0
2014-Jul-26 19:33N 43°35' E 010°18'0 0.0
2014-Jul-26 18:34N 43°35' E 010°18'0 0.0
2014-Jul-26 17:34N 43°35' E 010°18'0 0.0
2014-Jul-26 16:33N 43°35' E 010°18'0 0.0
2014-Jul-26 15:34N 43°35' E 010°18'0 0.0
2014-Jul-26 14:34N 43°35' E 010°18'0 0.0
2014-Jul-26 13:34N 43°35' E 010°18'0 0.0
2014-Jul-26 12:34N 43°35' E 010°18'0 0.0
2014-Jul-26 11:33N 43°35' E 010°18'0 0.0
2014-Jul-26 10:34N 43°35' E 010°18'0 0.0
2014-Jul-26 09:34N 43°35' E 010°18'0 0.0
2014-Jul-26 08:34N 43°35' E 010°18'0 0.0
2014-Jul-26 07:34N 43°35' E 010°18'0 0.0
2014-Jul-26 06:33N 43°35' E 010°18'0 0.0
2014-Jul-26 05:33N 43°35' E 010°18'0 0.0
2014-Jul-26 04:33N 43°35' E 010°18'0 0.0
2014-Jul-26 03:34N 43°35' E 010°18'0 0.0
2014-Jul-26 02:33N 43°35' E 010°18'0 0.0
2014-Jul-26 01:33N 43°35' E 010°18'0 0.0
2014-Jul-26 00:34N 43°35' E 010°18'0 0.0
2014-Jul-25 23:33N 43°35' E 010°18'0 0.0
2014-Jul-25 22:33N 43°35' E 010°18'0 0.0
2014-Jul-25 21:34N 43°35' E 010°18'0 0.0
2014-Jul-25 20:33N 43°35' E 010°18'0 0.0
2014-Jul-25 19:33N 43°35' E 010°18'0 0.0
2014-Jul-25 18:33N 43°35' E 010°18'0 0.0
2014-Jul-25 17:34N 43°35' E 010°18'0 0.0
2014-Jul-25 16:34N 43°35' E 010°18'0 0.0
2014-Jul-25 15:34N 43°35' E 010°18'0 0.0
2014-Jul-25 14:34N 43°35' E 010°18'0 0.0
2014-Jul-25 13:34N 43°35' E 010°18'0 0.0
2014-Jul-25 12:34N 43°35' E 010°18'0 0.0
2014-Jul-25 11:34N 43°35' E 010°18'0 0.0
2014-Jul-25 10:34N 43°35' E 010°18'0 0.0
2014-Jul-25 09:34N 43°35' E 010°18'0 0.0
2014-Jul-25 08:33N 43°35' E 010°18'0 0.0
2014-Jul-25 07:34N 43°35' E 010°18'0 0.0
2014-Jul-25 06:34N 43°35' E 010°18'0 0.0
2014-Jul-25 05:34N 43°35' E 010°18'0 0.0
2014-Jul-25 04:33N 43°35' E 010°18'0 0.0
2014-Jul-25 03:33N 43°35' E 010°18'0 0.0
2014-Jul-25 02:33N 43°35' E 010°18'0 0.0
2014-Jul-25 01:33N 43°35' E 010°18'0 0.0
2014-Jul-25 00:33N 43°35' E 010°18'0 0.0
2014-Jul-24 23:33N 43°35' E 010°18'0 0.0
2014-Jul-24 22:33N 43°35' E 010°18'0 0.0
2014-Jul-24 21:33N 43°35' E 010°18'0 0.0
2014-Jul-24 20:33N 43°35' E 010°18'0 0.0
2014-Jul-24 19:33N 43°35' E 010°18'4 4.5
2014-Jul-24 18:33N 43°31' E 010°15'1717.0
2014-Jul-24 17:33N 43°20' E 009°57'1919.2
2014-Jul-24 16:33N 43°14' E 009°32'10319.1
2014-Jul-24 11:10N 42°39' E 007°20'1219.3
2014-Jul-24 10:33N 42°35' E 007°04'2019.3
2014-Jul-24 09:32N 42°28' E 006°39'1919.6
2014-Jul-24 08:33N 42°22' E 006°15'2020.4
2014-Jul-24 07:33N 42°15' E 005°49'2120.6
2014-Jul-24 06:32N 42°08' E 005°22'2120.3
2014-Jul-24 05:31N 42°01' E 004°56'1919.6
2014-Jul-24 04:33N 41°54' E 004°32'2020.4
2014-Jul-24 03:33N 41°48' E 004°06'2020.0
2014-Jul-24 02:33N 41°41' E 003°41'2121.2
2014-Jul-24 01:33N 41°34' E 003°15'2019.5
2014-Jul-24 00:33N 41°27' E 002°50'1918.9
2014-Jul-23 23:33N 41°20' E 002°26'1212.1
2014-Jul-23 22:33N 41°20' E 002°10'2 1.8
2014-Jul-23 21:33N 41°22' E 002°11'0 0.0
2014-Jul-23 20:33N 41°22' E 002°11'0 0.0
2014-Jul-23 19:33N 41°22' E 002°11'0 0.2
2014-Jul-23 18:33N 41°22' E 002°11'1515.1
2014-Jul-23 17:33N 41°07' E 002°05'2121.4
2014-Jul-23 16:34N 40°48' E 001°52'2121.0
2014-Jul-23 15:33N 40°30' E 001°39'2121.1
2014-Jul-23 14:33N 40°11' E 001°27'2120.9
2014-Jul-23 13:34N 39°52' E 001°15'6521.4
2014-Jul-23 10:31N 38°54' E 000°37'2220.3
2014-Jul-23 09:27N 38°36' E 000°22'1921.4
2014-Jul-23 08:33N 38°20' E 000°09'2221.6
2014-Jul-23 07:33N 38°02' W 000°06'2121.4
2014-Jul-23 06:33N 37°44' W 000°22'2221.1
2014-Jul-23 05:31N 37°28' W 000°40'2021.1
2014-Jul-23 04:33N 37°14' W 000°59'2121.1
2014-Jul-23 03:33N 36°60' W 001°18'2420.9
2014-Jul-23 02:24N 36°43' W 001°41'1821.5
2014-Jul-23 01:33N 36°30' W 001°57'2320.4
2014-Jul-23 00:25N 36°20' W 002°22'15021.8
2014-Jul-22 17:33N 35°57' W 005°25'3 0.3
2014-Jul-22 09:32N 35°60' W 005°24'15014.4
2014-Jul-21 23:08N 36°25' W 002°22'814.8
2014-Jul-21 22:34N 36°27' W 002°11'1515.1
2014-Jul-21 21:34N 36°36' W 001°57'1715.4
2014-Jul-21 20:29N 36°47' W 001°41'315.5
2014-Jul-21 20:18N 36°49' W 001°38'1215.4
2014-Jul-21 19:33N 36°57' W 001°28'4615.1
2014-Jul-21 16:30N 37°27' W 000°44'1414.9
2014-Jul-21 15:33N 37°37' W 000°32'1514.7
2014-Jul-21 14:31N 37°50' W 000°21'  

Dump ship's entire track history